createdAt,value
2022-10-01T00:01:52.438Z,10.30
2022-10-01T00:04:20.043Z,7.30
2022-10-01T00:06:47.520Z,15.95
2022-10-01T00:09:16.019Z,12.13
2022-10-01T00:11:43.647Z,9.55
2022-10-01T00:14:11.281Z,7.78
2022-10-01T00:16:38.989Z,12.48
2022-10-01T00:19:06.813Z,6.22
2022-10-01T00:21:34.622Z,7.38
2022-10-01T00:24:04.829Z,10.15
2022-10-01T00:26:34.841Z,8.35
2022-10-01T00:29:05.646Z,4.78
2022-10-01T00:31:33.931Z,9.93
2022-10-01T00:34:05.321Z,14.10
2022-10-01T00:36:33.098Z,12.10
2022-10-01T00:39:00.985Z,8.68
2022-10-01T00:41:30.828Z,11.40
2022-10-01T00:44:04.414Z,9.45
2022-10-01T00:46:45.862Z,6.47
2022-10-01T00:49:24.290Z,10.40
2022-10-01T00:51:58.041Z,9.80
2022-10-01T00:54:34.881Z,5.10
2022-10-01T00:59:31.175Z,10.82
2022-10-01T01:01:59.410Z,8.40
2022-10-01T01:04:27.868Z,12.07
2022-10-01T01:06:58.366Z,18.27
2022-10-01T01:09:31.196Z,11.90
2022-10-01T01:12:05.387Z,11.18
2022-10-01T01:15:29.486Z,13.77
2022-10-01T01:17:59.029Z,19.95
2022-10-01T01:20:44.063Z,11.95
2022-10-01T01:23:17.715Z,9.57
2022-10-01T01:25:50.323Z,10.43
2022-10-01T01:28:31.828Z,9.60
2022-10-01T01:31:07.739Z,12.38
2022-10-01T01:33:38.942Z,14.52
2022-10-01T01:36:17.245Z,16.75
2022-10-01T01:38:57.634Z,14.98
2022-10-01T01:41:29.468Z,11.15
2022-10-01T01:44:00.928Z,9.40
2022-10-01T01:46:34.136Z,12.70
2022-10-01T01:49:04.360Z,19.00
2022-10-01T01:54:19.849Z,14.88
2022-10-01T01:56:49.701Z,17.05
2022-10-01T01:59:19.597Z,20.15
2022-10-01T02:01:49.542Z,16.45
2022-10-01T02:04:36.025Z,13.40
2022-10-01T02:07:26.393Z,13.82
2022-10-01T02:10:08.392Z,15.82
2022-10-01T02:13:04.619Z,14.43
2022-10-01T02:16:08.577Z,17.23
2022-10-01T02:18:48.731Z,14.25
2022-10-01T02:21:38.173Z,17.90
2022-10-01T02:24:19.241Z,15.07
2022-10-01T02:26:49.825Z,15.93
2022-10-01T02:29:21.918Z,21.30
2022-10-01T02:31:53.438Z,10.88
2022-10-01T02:34:22.780Z,20.70
2022-10-01T02:36:51.978Z,14.77
2022-10-01T02:39:22.311Z,19.20
2022-10-01T02:44:23.775Z,15.65
2022-10-01T02:47:04.507Z,13.25
2022-10-01T02:49:32.457Z,22.33
2022-10-01T02:52:09.945Z,16.67
2022-10-01T02:54:50.801Z,10.90
2022-10-01T02:57:27.274Z,9.45
2022-10-01T03:00:07.560Z,18.95
2022-10-01T03:02:35.377Z,15.18
2022-10-01T03:05:04.064Z,9.57
2022-10-01T03:07:35.705Z,14.48
2022-10-01T03:10:04.913Z,16.23
2022-10-01T03:12:33.138Z,11.02
2022-10-01T03:15:00.929Z,17.98
2022-10-01T03:17:28.986Z,14.60
2022-10-01T03:19:56.438Z,21.67
2022-10-01T03:22:24.146Z,20.45
2022-10-01T03:24:52.615Z,21.52
2022-10-01T03:27:21.458Z,16.02
2022-10-01T03:29:49.482Z,15.73
2022-10-01T03:32:17.830Z,24.08
2022-10-01T03:34:45.434Z,17.38
2022-10-01T03:37:13.150Z,20.92
2022-10-01T03:39:40.573Z,17.83
2022-10-01T03:42:08.086Z,19.80
2022-10-01T03:44:35.614Z,14.43
2022-10-01T03:47:03.227Z,22.45
2022-10-01T03:49:31.018Z,16.83
2022-10-01T03:51:59.273Z,21.80
2022-10-01T03:54:26.772Z,14.52
2022-10-01T03:56:54.382Z,19.80
2022-10-01T03:59:22.186Z,18.30
2022-10-01T04:01:49.779Z,21.15
2022-10-01T04:04:17.291Z,14.25
2022-10-01T04:06:44.880Z,11.80
2022-10-01T04:09:12.452Z,13.57
2022-10-01T04:11:39.938Z,14.65
2022-10-01T04:14:07.453Z,23.73
2022-10-01T04:16:36.145Z,13.75
2022-10-01T04:19:04.607Z,15.38
2022-10-01T04:21:32.426Z,15.35
2022-10-01T04:24:01.085Z,17.00
2022-10-01T04:26:28.533Z,13.88
2022-10-01T04:28:56.227Z,16.50
2022-10-01T04:31:26.750Z,8.90
2022-10-01T04:33:56.729Z,11.98
2022-10-01T04:36:25.214Z,11.93
2022-10-01T04:38:56.824Z,10.95
2022-10-01T04:41:27.135Z,16.42
2022-10-01T04:43:54.678Z,18.85
2022-10-01T04:46:22.117Z,12.48
2022-10-01T04:48:49.651Z,12.73
2022-10-01T04:51:18.140Z,17.48
2022-10-01T04:53:45.609Z,18.08
2022-10-01T04:56:13.148Z,14.98
2022-10-01T04:58:41.358Z,19.73
2022-10-01T05:01:08.952Z,17.83
2022-10-01T05:03:36.452Z,21.95
2022-10-01T05:06:04.055Z,20.92
2022-10-01T05:08:31.495Z,11.80
2022-10-01T05:11:00.345Z,18.45
2022-10-01T05:13:30.437Z,19.75
2022-10-01T05:18:26.102Z,17.05
2022-10-01T05:20:53.586Z,11.13
2022-10-01T05:23:21.080Z,11.75
2022-10-01T05:25:48.610Z,17.83
2022-10-01T05:28:21.403Z,19.02
2022-10-01T05:30:51.121Z,24.55
2022-10-01T05:33:18.843Z,16.98
2022-10-01T05:35:46.294Z,16.90
2022-10-01T05:38:13.897Z,19.75
2022-10-01T05:40:46.057Z,16.38
2022-10-01T05:43:14.652Z,18.83
2022-10-01T05:45:43.073Z,26.63
2022-10-01T05:48:12.279Z,18.35
2022-10-01T05:50:40.809Z,26.45
2022-10-01T05:53:11.160Z,14.15
2022-10-01T05:55:38.812Z,20.23
2022-10-01T05:58:12.144Z,19.90
2022-10-01T06:00:41.407Z,24.17
2022-10-01T06:03:12.890Z,21.38
2022-10-01T06:05:41.028Z,17.52
2022-10-01T06:08:11.828Z,15.73
2022-10-01T06:10:39.682Z,17.88
2022-10-01T06:13:07.664Z,11.60
2022-10-01T06:15:38.169Z,22.30
2022-10-01T06:18:07.929Z,13.40
2022-10-01T06:20:36.378Z,15.80
2022-10-01T06:23:10.033Z,22.33
2022-10-01T06:25:38.390Z,13.82
2022-10-01T06:28:07.563Z,20.25
2022-10-01T06:30:37.194Z,7.03
2022-10-01T06:33:10.321Z,21.13
2022-10-01T06:35:47.265Z,14.80
2022-10-01T06:38:16.054Z,17.42
2022-10-01T06:40:43.711Z,16.50
2022-10-01T06:43:11.272Z,16.15
2022-10-01T06:45:43.689Z,16.75
2022-10-01T06:48:16.734Z,15.82
2022-10-01T06:50:45.294Z,17.05
2022-10-01T06:53:14.457Z,19.02
2022-10-01T06:55:42.303Z,15.23
2022-10-01T06:58:18.317Z,20.00
2022-10-01T07:00:46.192Z,10.50
2022-10-01T07:03:20.042Z,16.98
2022-10-01T07:05:48.863Z,13.80
2022-10-01T07:08:17.702Z,18.00
2022-10-01T07:10:45.861Z,20.55
2022-10-01T07:13:16.604Z,17.98
2022-10-01T07:15:45.566Z,31.40
2022-10-01T07:18:13.853Z,16.20
2022-10-01T07:20:41.412Z,15.25
2022-10-01T07:23:12.214Z,13.77
2022-10-01T07:25:40.558Z,18.70
2022-10-01T07:28:16.870Z,20.02
2022-10-01T07:36:03.618Z,14.52
2022-10-01T07:38:33.493Z,21.30
2022-10-01T07:41:02.924Z,15.48
2022-10-01T07:43:33.113Z,11.02
2022-10-01T07:48:31.058Z,14.45
2022-10-01T07:50:58.670Z,10.68
2022-10-01T07:53:26.998Z,14.95
2022-10-01T07:55:54.520Z,19.15
2022-10-01T07:58:24.187Z,16.52
2022-10-01T08:00:58.174Z,11.90
2022-10-01T08:03:25.809Z,14.30
2022-10-01T08:05:54.283Z,18.90
2022-10-01T08:08:21.787Z,12.05
2022-10-01T08:10:49.932Z,18.38
2022-10-01T08:13:18.718Z,17.05
2022-10-01T08:15:53.680Z,15.98
2022-10-01T08:18:22.660Z,14.35
2022-10-01T08:20:50.710Z,12.77
2022-10-01T08:23:18.642Z,13.32
2022-10-01T08:25:47.984Z,9.30
2022-10-01T08:28:16.499Z,13.95
2022-10-01T08:30:44.307Z,18.98
2022-10-01T08:33:12.978Z,19.27
2022-10-01T08:35:43.096Z,12.73
2022-10-01T08:38:11.990Z,12.23
2022-10-01T08:40:48.036Z,13.15
2022-10-01T08:43:18.378Z,13.80
2022-10-01T08:45:49.449Z,13.57
2022-10-01T08:48:38.831Z,9.98
2022-10-01T08:51:32.791Z,12.23
2022-10-01T08:54:24.942Z,10.48
2022-10-01T08:56:55.001Z,11.55
2022-10-01T08:59:28.880Z,14.48
2022-10-01T09:01:59.074Z,5.75
2022-10-01T09:07:26.571Z,9.40
2022-10-01T09:10:19.747Z,10.50
2022-10-01T09:12:51.561Z,9.15
2022-10-01T09:15:53.362Z,13.05
2022-10-01T09:18:45.001Z,6.97
2022-10-01T09:21:44.009Z,4.03
2022-10-01T09:24:24.114Z,16.17
2022-10-01T09:26:52.146Z,10.52
2022-10-01T09:29:27.431Z,8.73
2022-10-01T09:31:56.664Z,12.02
2022-10-01T09:34:34.057Z,10.55
2022-10-01T09:37:39.231Z,8.63
2022-10-01T09:40:34.643Z,12.15
2022-10-01T09:43:04.098Z,7.00
2022-10-01T09:45:31.586Z,10.95
2022-10-01T09:48:14.551Z,5.43
2022-10-01T09:50:58.163Z,10.30
2022-10-01T09:53:34.824Z,7.82
2022-10-01T09:58:37.075Z,11.63
2022-10-01T10:01:11.880Z,10.27
2022-10-01T10:03:39.778Z,11.57
2022-10-01T10:06:07.365Z,12.32
2022-10-01T10:08:37.910Z,10.95
2022-10-01T10:11:09.317Z,15.57
2022-10-01T10:13:50.489Z,6.75
2022-10-01T10:16:20.314Z,6.65
2022-10-01T10:18:53.406Z,10.43
2022-10-01T10:21:28.770Z,7.55
2022-10-01T10:23:59.571Z,5.20
2022-10-01T10:26:32.699Z,17.98
2022-10-01T10:29:02.797Z,5.75
2022-10-01T10:31:41.594Z,9.73
2022-10-01T10:34:24.530Z,8.52
2022-10-01T10:36:59.087Z,11.88
2022-10-01T10:39:34.534Z,6.18
2022-10-01T10:42:04.859Z,11.20
2022-10-01T10:44:38.907Z,6.85
2022-10-01T10:47:13.584Z,9.02
2022-10-01T10:49:45.564Z,10.52
2022-10-01T10:52:37.124Z,7.78
2022-10-01T10:55:25.376Z,6.72
2022-10-01T10:57:57.531Z,5.25
2022-10-01T11:00:26.682Z,9.13
2022-10-01T11:03:00.746Z,9.18
2022-10-01T11:05:32.767Z,5.97
2022-10-01T11:08:03.738Z,7.60
2022-10-01T11:10:51.679Z,8.05
2022-10-01T11:13:24.228Z,6.93
2022-10-01T11:16:24.743Z,16.95
2022-10-01T11:19:07.778Z,9.07
2022-10-01T11:24:33.106Z,6.30
2022-10-01T11:27:36.580Z,6.63
2022-10-01T11:30:10.093Z,4.80
2022-10-01T11:32:39.363Z,5.68
2022-10-01T11:35:46.626Z,7.65
2022-10-01T11:38:23.452Z,7.07
2022-10-01T11:41:13.981Z,9.25
2022-10-01T11:43:45.845Z,6.13
2022-10-01T11:46:37.745Z,4.78
2022-10-01T11:49:08.767Z,8.18
2022-10-01T11:51:43.529Z,5.65
2022-10-01T11:54:17.646Z,4.32
2022-10-01T11:57:09.263Z,6.93
2022-10-01T11:59:58.590Z,7.00
2022-10-01T12:02:52.508Z,9.40
2022-10-01T12:05:22.305Z,9.00
2022-10-01T12:07:50.141Z,11.70
2022-10-01T12:10:37.247Z,11.25
2022-10-01T12:13:22.436Z,6.20
2022-10-01T12:15:52.877Z,5.97
2022-10-01T12:18:28.316Z,9.32
2022-10-01T12:21:00.344Z,4.93
2022-10-01T12:23:32.384Z,6.70
2022-10-01T12:26:47.118Z,5.95
2022-10-01T12:29:43.622Z,4.70
2022-10-01T12:32:39.454Z,9.32
2022-10-01T12:35:25.981Z,10.60
2022-10-01T12:38:13.814Z,7.47
2022-10-01T12:40:59.470Z,7.15
2022-10-01T12:44:03.476Z,6.43
2022-10-01T12:46:45.529Z,5.05
2022-10-01T12:49:12.968Z,6.55
2022-10-01T12:51:46.899Z,5.35
2022-10-01T12:54:36.340Z,9.82
2022-10-01T12:57:37.017Z,9.68
2022-10-01T13:00:17.290Z,10.18
2022-10-01T13:03:08.943Z,7.40
2022-10-01T13:05:42.590Z,6.80
2022-10-01T13:08:28.433Z,5.65
2022-10-01T13:11:05.576Z,11.13
2022-10-01T13:13:33.990Z,8.25
2022-10-01T13:16:24.501Z,7.90
2022-10-01T13:19:03.472Z,9.52
2022-10-01T13:21:44.991Z,6.97
2022-10-01T13:24:27.275Z,7.15
2022-10-01T13:27:04.041Z,8.85
2022-10-01T13:30:01.810Z,6.68
2022-10-01T13:32:51.998Z,5.47
2022-10-01T13:35:42.450Z,8.07
2022-10-01T13:38:29.239Z,5.40
2022-10-01T13:41:00.073Z,5.20
2022-10-01T13:43:30.490Z,10.18
2022-10-01T13:46:07.735Z,8.93
2022-10-01T13:48:37.361Z,8.23
2022-10-01T13:51:13.112Z,9.35
2022-10-01T13:53:43.929Z,9.73
2022-10-01T13:56:14.356Z,7.90
2022-10-01T13:58:46.382Z,8.73
2022-10-01T14:01:20.101Z,9.50
2022-10-01T14:03:57.069Z,13.18
2022-10-01T14:06:33.976Z,8.23
2022-10-01T14:09:23.458Z,9.00
2022-10-01T14:15:19.898Z,8.63
2022-10-01T14:17:53.065Z,6.07
2022-10-01T14:20:27.131Z,6.65
2022-10-01T14:23:10.893Z,8.35
2022-10-01T14:25:44.208Z,8.13
2022-10-01T14:28:25.767Z,5.55
2022-10-01T14:31:42.274Z,11.32
2022-10-01T14:34:31.034Z,7.05
2022-10-01T14:36:58.942Z,4.85
2022-10-01T14:39:28.561Z,5.40
2022-10-01T14:41:57.858Z,6.75
2022-10-01T14:44:31.977Z,7.05
2022-10-01T14:47:00.673Z,6.57
2022-10-01T14:49:32.693Z,8.10
2022-10-01T14:52:16.930Z,5.32
2022-10-01T14:54:56.467Z,5.18
2022-10-01T14:57:40.627Z,6.03
2022-10-01T15:00:15.670Z,8.23
2022-10-01T15:02:52.144Z,6.40
2022-10-01T15:05:33.974Z,7.68
2022-10-01T15:08:22.782Z,7.32
2022-10-01T15:11:01.037Z,11.70
2022-10-01T15:13:38.647Z,7.38
2022-10-01T15:16:15.027Z,5.07
2022-10-01T15:18:48.010Z,3.92
2022-10-01T15:21:20.991Z,5.20
2022-10-01T15:23:49.424Z,8.45
2022-10-01T15:26:23.649Z,8.35
2022-10-01T15:29:02.577Z,4.22
2022-10-01T15:31:30.537Z,9.82
2022-10-01T15:34:01.890Z,5.13
2022-10-01T15:36:29.739Z,7.72
2022-10-01T15:38:57.982Z,5.45
2022-10-01T15:41:39.905Z,4.55
2022-10-01T15:44:38.431Z,7.53
2022-10-01T15:47:27.411Z,8.48
2022-10-01T15:50:10.158Z,8.15
2022-10-01T15:52:54.431Z,3.42
2022-10-01T15:55:33.655Z,7.15
2022-10-01T15:58:10.329Z,7.85
2022-10-01T16:01:01.860Z,3.65
2022-10-01T16:03:33.798Z,6.88
2022-10-01T16:06:03.064Z,7.30
2022-10-01T16:08:48.993Z,7.10
2022-10-01T16:11:17.936Z,8.30
2022-10-01T16:13:50.638Z,6.45
2022-10-01T16:16:19.343Z,5.18
2022-10-01T16:18:57.319Z,6.43
2022-10-01T16:21:25.531Z,6.40
2022-10-01T16:23:54.887Z,5.15
2022-10-01T16:26:33.598Z,9.73
2022-10-01T16:29:13.976Z,7.55
2022-10-01T16:31:44.997Z,8.70
2022-10-01T16:34:17.394Z,7.85
2022-10-01T16:36:46.455Z,6.07
2022-10-01T16:39:15.166Z,10.02
2022-10-01T16:41:56.531Z,6.30
2022-10-01T16:44:38.320Z,4.13
2022-10-01T16:47:05.865Z,6.68
2022-10-01T16:49:33.302Z,15.48
2022-10-01T16:52:01.130Z,6.00
2022-10-01T16:54:28.863Z,9.50
2022-10-01T16:56:56.484Z,9.77
2022-10-01T16:59:25.025Z,8.80
2022-10-01T17:01:55.835Z,6.88
2022-10-01T17:04:23.904Z,7.25
2022-10-01T17:06:51.352Z,8.40
2022-10-01T17:09:18.947Z,9.30
2022-10-01T17:11:46.646Z,6.10
2022-10-01T17:14:19.622Z,9.70
2022-10-01T17:16:48.461Z,10.80
2022-10-01T17:19:16.545Z,10.82
2022-10-01T17:21:44.540Z,10.23
2022-10-01T17:24:12.281Z,5.43
2022-10-01T17:26:45.322Z,4.18
2022-10-01T17:29:13.091Z,7.13
2022-10-01T17:31:44.709Z,5.30
2022-10-01T17:34:13.142Z,6.72
2022-10-01T17:36:40.631Z,3.60
2022-10-01T17:39:08.350Z,6.20
2022-10-01T17:41:35.908Z,7.22
2022-10-01T17:44:03.528Z,10.00
2022-10-01T17:46:30.978Z,5.65
2022-10-01T17:48:58.402Z,7.88
2022-10-01T17:51:26.120Z,11.02
2022-10-01T17:53:55.021Z,9.02
2022-10-01T17:56:22.698Z,8.23
2022-10-01T17:58:52.555Z,6.53
2022-10-01T18:01:22.242Z,8.48
2022-10-01T18:04:00.404Z,5.45
2022-10-01T18:06:28.115Z,4.65
2022-10-01T18:08:56.682Z,10.73
2022-10-01T18:11:28.021Z,5.78
2022-10-01T18:13:55.506Z,4.82
2022-10-01T18:16:23.777Z,4.40
2022-10-01T18:21:44.046Z,7.55
2022-10-01T18:24:11.545Z,6.95
2022-10-01T18:26:39.491Z,7.80
2022-10-01T18:29:07.140Z,13.20
2022-10-01T18:31:41.021Z,8.32
2022-10-01T18:34:32.638Z,8.48
2022-10-01T18:37:08.038Z,6.70
2022-10-01T18:39:47.379Z,3.90
2022-10-01T18:42:34.249Z,8.48
2022-10-01T18:45:05.271Z,6.30
2022-10-01T18:47:51.321Z,8.57
2022-10-01T18:50:31.924Z,5.75
2022-10-01T18:53:02.104Z,5.97
2022-10-01T18:55:59.953Z,4.70
2022-10-01T18:58:39.562Z,5.22
2022-10-01T19:01:18.496Z,7.25
2022-10-01T19:04:01.053Z,7.55
2022-10-01T19:06:40.790Z,10.98
2022-10-01T19:09:29.671Z,10.23
2022-10-01T19:12:04.553Z,3.97
2022-10-01T19:15:02.759Z,6.78
2022-10-01T19:17:47.441Z,9.07
2022-10-01T19:20:45.962Z,7.97
2022-10-01T19:23:13.657Z,9.82
2022-10-01T19:25:48.712Z,9.98
2022-10-01T19:28:48.868Z,6.22
2022-10-01T19:31:28.448Z,7.43
2022-10-01T19:34:16.255Z,11.02
2022-10-01T19:36:52.605Z,8.57
2022-10-01T19:39:27.002Z,10.30
2022-10-01T19:42:06.155Z,11.05
2022-10-01T19:44:49.190Z,10.48
2022-10-01T19:47:40.531Z,10.93
2022-10-01T19:50:37.147Z,9.85
2022-10-01T19:53:05.634Z,8.65
2022-10-01T19:55:38.696Z,7.40
2022-10-01T19:58:16.811Z,6.00
2022-10-01T20:00:48.000Z,7.97
2022-10-01T20:03:29.387Z,5.03
2022-10-01T20:06:09.727Z,14.50
2022-10-01T20:08:55.836Z,9.05
2022-10-01T20:11:26.434Z,6.70
2022-10-01T20:14:41.627Z,6.68
2022-10-01T20:17:44.443Z,6.82
2022-10-01T20:23:05.821Z,10.00
2022-10-01T20:25:54.565Z,5.78
2022-10-01T20:28:36.565Z,8.20
2022-10-01T20:31:10.844Z,9.93
2022-10-01T20:33:43.264Z,7.07
2022-10-01T20:36:52.118Z,5.50
2022-10-01T20:39:26.065Z,7.63
2022-10-01T20:41:54.708Z,7.53
2022-10-01T20:44:31.632Z,6.38
2022-10-01T20:47:20.791Z,10.07
2022-10-01T20:50:05.707Z,9.35
2022-10-01T20:53:15.229Z,12.57
2022-10-01T20:56:00.255Z,8.40
2022-10-01T20:58:54.370Z,6.25
2022-10-01T21:01:24.954Z,9.82
2022-10-01T21:04:06.049Z,5.55
2022-10-01T21:06:39.147Z,4.82
2022-10-01T21:09:25.321Z,13.02
2022-10-01T21:11:58.354Z,4.18
2022-10-01T21:14:28.082Z,9.80
2022-10-01T21:17:07.437Z,5.32
2022-10-01T21:20:35.481Z,5.07
2022-10-01T21:23:30.776Z,6.35
2022-10-01T21:26:17.339Z,8.85
2022-10-01T21:29:06.858Z,9.63
2022-10-01T21:31:42.497Z,6.40
2022-10-01T21:34:17.574Z,9.68
2022-10-01T21:37:24.810Z,5.15
2022-10-01T21:40:20.030Z,6.28
2022-10-01T21:43:22.703Z,6.22
2022-10-01T21:46:00.733Z,9.57
2022-10-01T21:48:41.913Z,5.25
2022-10-01T21:51:36.107Z,8.00
2022-10-01T21:54:30.308Z,6.38
2022-10-01T21:57:22.458Z,9.57
2022-10-01T22:00:10.004Z,8.45
2022-10-01T22:03:05.186Z,4.63
2022-10-01T22:05:53.765Z,5.75
2022-10-01T22:08:31.204Z,11.48
2022-10-01T22:11:07.323Z,5.25
2022-10-01T22:13:38.611Z,9.95
2022-10-01T22:16:13.859Z,12.32
2022-10-01T22:19:05.142Z,10.15
2022-10-01T22:21:42.997Z,7.72
2022-10-01T22:24:13.317Z,7.45
2022-10-01T22:26:47.139Z,10.00
2022-10-01T22:29:20.409Z,5.82
2022-10-01T22:31:50.452Z,10.20
2022-10-01T22:34:22.607Z,8.30
2022-10-01T22:37:01.925Z,9.20
2022-10-01T22:39:34.791Z,7.18
2022-10-01T22:42:18.897Z,7.50
2022-10-01T22:44:47.430Z,6.38
2022-10-01T22:47:26.645Z,14.07
2022-10-01T22:50:09.228Z,8.18
2022-10-01T22:53:07.900Z,10.07
2022-10-01T22:55:56.308Z,12.18
2022-10-01T22:58:58.240Z,11.75
2022-10-01T23:01:31.682Z,11.05
2022-10-01T23:04:28.319Z,8.10
2022-10-01T23:06:58.871Z,9.30
2022-10-01T23:09:59.499Z,10.25
2022-10-01T23:12:33.183Z,16.05
2022-10-01T23:15:07.995Z,9.02
2022-10-01T23:18:02.899Z,10.63
2022-10-01T23:20:58.532Z,5.78
2022-10-01T23:23:32.120Z,7.25
2022-10-01T23:26:23.936Z,9.85
2022-10-01T23:29:20.616Z,10.82
2022-10-01T23:32:09.576Z,10.88
2022-10-01T23:35:04.163Z,15.55
2022-10-01T23:37:51.468Z,11.48
2022-10-01T23:40:22.836Z,10.27
2022-10-01T23:43:09.157Z,10.43
2022-10-01T23:45:43.445Z,14.43
2022-10-01T23:48:11.021Z,9.85
2022-10-01T23:50:45.219Z,8.70
2022-10-01T23:53:16.560Z,18.48
2022-10-01T23:56:33.627Z,19.90
2022-10-01T23:59:16.151Z,9.60
